sensor_id;sensor_type;location;lat;lon;timestamp;temperature;humidity
40085;DHT22;25786;51.504;7.344;2022-11-25T00:01:27;8.60;80.50
40085;DHT22;25786;51.504;7.344;2022-11-25T00:03:54;8.60;80.80
40085;DHT22;25786;51.504;7.344;2022-11-25T00:06:21;8.70;80.90
40085;DHT22;25786;51.504;7.344;2022-11-25T00:08:54;8.90;80.10
40085;DHT22;25786;51.504;7.344;2022-11-25T00:11:20;9.00;80.10
40085;DHT22;25786;51.504;7.344;2022-11-25T00:13:46;8.90;80.30
40085;DHT22;25786;51.504;7.344;2022-11-25T00:16:13;9.00;80.10
40085;DHT22;25786;51.504;7.344;2022-11-25T00:18:38;9.00;79.80
40085;DHT22;25786;51.504;7.344;2022-11-25T00:21:08;9.00;80.10
40085;DHT22;25786;51.504;7.344;2022-11-25T00:23:34;9.00;80.20
40085;DHT22;25786;51.504;7.344;2022-11-25T00:28:31;9.10;80.10
40085;DHT22;25786;51.504;7.344;2022-11-25T00:31:03;9.00;80.10
40085;DHT22;25786;51.504;7.344;2022-11-25T00:33:28;9.00;80.40
40085;DHT22;25786;51.504;7.344;2022-11-25T00:35:53;9.10;80.30
40085;DHT22;25786;51.504;7.344;2022-11-25T00:38:19;9.10;79.90
40085;DHT22;25786;51.504;7.344;2022-11-25T00:40:44;9.10;80.20
40085;DHT22;25786;51.504;7.344;2022-11-25T00:43:30;9.10;80.10
40085;DHT22;25786;51.504;7.344;2022-11-25T00:46:14;9.10;80.30
40085;DHT22;25786;51.504;7.344;2022-11-25T00:48:39;9.10;80.40
40085;DHT22;25786;51.504;7.344;2022-11-25T00:51:05;9.10;80.30
40085;DHT22;25786;51.504;7.344;2022-11-25T00:53:30;9.10;80.70
40085;DHT22;25786;51.504;7.344;2022-11-25T00:56:00;9.10;80.50
40085;DHT22;25786;51.504;7.344;2022-11-25T00:58:37;9.10;80.60
40085;DHT22;25786;51.504;7.344;2022-11-25T01:01:03;9.20;80.40
40085;DHT22;25786;51.504;7.344;2022-11-25T01:03:28;9.20;80.10
40085;DHT22;25786;51.504;7.344;2022-11-25T01:05:54;9.20;80.30
40085;DHT22;25786;51.504;7.344;2022-11-25T01:08:19;9.20;80.20
40085;DHT22;25786;51.504;7.344;2022-11-25T01:10:45;9.30;80.30
40085;DHT22;25786;51.504;7.344;2022-11-25T01:13:10;9.20;80.30
40085;DHT22;25786;51.504;7.344;2022-11-25T01:15:36;9.30;80.00
40085;DHT22;25786;51.504;7.344;2022-11-25T01:18:01;9.30;79.90
40085;DHT22;25786;51.504;7.344;2022-11-25T01:20:33;9.20;80.00
40085;DHT22;25786;51.504;7.344;2022-11-25T01:22:58;9.30;80.10
40085;DHT22;25786;51.504;7.344;2022-11-25T01:25:24;9.30;79.90
40085;DHT22;25786;51.504;7.344;2022-11-25T01:27:49;9.30;79.90
40085;DHT22;25786;51.504;7.344;2022-11-25T01:30:15;9.40;80.00
40085;DHT22;25786;51.504;7.344;2022-11-25T01:32:40;9.40;80.00
40085;DHT22;25786;51.504;7.344;2022-11-25T01:35:06;9.30;80.30
40085;DHT22;25786;51.504;7.344;2022-11-25T01:37:31;9.30;80.10
40085;DHT22;25786;51.504;7.344;2022-11-25T01:39:57;9.40;80.20
40085;DHT22;25786;51.504;7.344;2022-11-25T01:42:25;9.40;80.00
40085;DHT22;25786;51.504;7.344;2022-11-25T01:45:23;9.50;80.00
40085;DHT22;25786;51.504;7.344;2022-11-25T01:47:53;9.30;80.10
40085;DHT22;25786;51.504;7.344;2022-11-25T01:50:20;9.40;80.20
40085;DHT22;25786;51.504;7.344;2022-11-25T01:52:48;9.30;80.20
40085;DHT22;25786;51.504;7.344;2022-11-25T01:55:16;9.20;80.50
40085;DHT22;25786;51.504;7.344;2022-11-25T01:57:45;9.20;80.80
40085;DHT22;25786;51.504;7.344;2022-11-25T02:00:12;9.20;80.70
40085;DHT22;25786;51.504;7.344;2022-11-25T02:02:37;9.30;80.70
40085;DHT22;25786;51.504;7.344;2022-11-25T02:05:06;9.30;80.70
40085;DHT22;25786;51.504;7.344;2022-11-25T02:07:41;9.20;80.50
40085;DHT22;25786;51.504;7.344;2022-11-25T02:10:29;9.10;80.90
40085;DHT22;25786;51.504;7.344;2022-11-25T02:12:56;9.10;81.30
40085;DHT22;25786;51.504;7.344;2022-11-25T02:15:22;9.10;80.90
40085;DHT22;25786;51.504;7.344;2022-11-25T02:17:47;9.10;81.00
40085;DHT22;25786;51.504;7.344;2022-11-25T02:20:14;9.00;81.20
40085;DHT22;25786;51.504;7.344;2022-11-25T02:22:44;8.90;81.50
40085;DHT22;25786;51.504;7.344;2022-11-25T02:27:36;9.00;81.70
40085;DHT22;25786;51.504;7.344;2022-11-25T02:30:02;9.00;81.80
40085;DHT22;25786;51.504;7.344;2022-11-25T02:32:27;9.10;81.30
40085;DHT22;25786;51.504;7.344;2022-11-25T02:34:53;9.10;81.40
40085;DHT22;25786;51.504;7.344;2022-11-25T02:37:19;9.20;81.10
40085;DHT22;25786;51.504;7.344;2022-11-25T02:39:45;9.20;81.00
40085;DHT22;25786;51.504;7.344;2022-11-25T02:42:11;9.20;81.20
40085;DHT22;25786;51.504;7.344;2022-11-25T02:44:37;9.20;81.10
40085;DHT22;25786;51.504;7.344;2022-11-25T02:47:02;9.10;81.30
40085;DHT22;25786;51.504;7.344;2022-11-25T02:49:28;9.20;81.40
40085;DHT22;25786;51.504;7.344;2022-11-25T02:51:53;9.30;81.00
40085;DHT22;25786;51.504;7.344;2022-11-25T02:54:19;9.20;81.00
40085;DHT22;25786;51.504;7.344;2022-11-25T02:56:44;9.30;81.20
40085;DHT22;25786;51.504;7.344;2022-11-25T02:59:10;9.20;81.60
40085;DHT22;25786;51.504;7.344;2022-11-25T03:01:35;9.20;81.60
40085;DHT22;25786;51.504;7.344;2022-11-25T03:04:02;9.20;81.50
40085;DHT22;25786;51.504;7.344;2022-11-25T03:06:28;9.20;81.50
40085;DHT22;25786;51.504;7.344;2022-11-25T03:08:54;9.20;81.70
40085;DHT22;25786;51.504;7.344;2022-11-25T03:11:19;9.20;81.60
40085;DHT22;25786;51.504;7.344;2022-11-25T03:13:44;9.30;81.30
40085;DHT22;25786;51.504;7.344;2022-11-25T03:16:10;9.40;81.20
40085;DHT22;25786;51.504;7.344;2022-11-25T03:18:35;9.40;81.40
40085;DHT22;25786;51.504;7.344;2022-11-25T03:21:01;9.30;81.50
40085;DHT22;25786;51.504;7.344;2022-11-25T03:23:27;9.30;81.90
40085;DHT22;25786;51.504;7.344;2022-11-25T03:25:53;9.40;82.00
40085;DHT22;25786;51.504;7.344;2022-11-25T03:28:18;9.30;81.50
40085;DHT22;25786;51.504;7.344;2022-11-25T03:30:44;9.40;82.00
40085;DHT22;25786;51.504;7.344;2022-11-25T03:33:09;9.40;82.00
40085;DHT22;25786;51.504;7.344;2022-11-25T03:35:35;9.50;81.90
40085;DHT22;25786;51.504;7.344;2022-11-25T03:38:00;9.50;81.50
40085;DHT22;25786;51.504;7.344;2022-11-25T03:40:26;9.50;81.60
40085;DHT22;25786;51.504;7.344;2022-11-25T03:42:51;9.60;81.50
40085;DHT22;25786;51.504;7.344;2022-11-25T03:45:17;9.50;81.60
40085;DHT22;25786;51.504;7.344;2022-11-25T03:47:43;9.50;81.50
40085;DHT22;25786;51.504;7.344;2022-11-25T03:50:09;9.50;82.00
40085;DHT22;25786;51.504;7.344;2022-11-25T03:52:35;9.50;82.20
40085;DHT22;25786;51.504;7.344;2022-11-25T03:55:01;9.60;82.20
40085;DHT22;25786;51.504;7.344;2022-11-25T03:57:27;9.50;82.40
40085;DHT22;25786;51.504;7.344;2022-11-25T03:59:52;9.60;82.50
40085;DHT22;25786;51.504;7.344;2022-11-25T04:02:17;9.50;82.00
40085;DHT22;25786;51.504;7.344;2022-11-25T04:04:43;9.60;81.90
40085;DHT22;25786;51.504;7.344;2022-11-25T04:07:09;9.60;82.00
40085;DHT22;25786;51.504;7.344;2022-11-25T04:09:34;9.50;82.00
40085;DHT22;25786;51.504;7.344;2022-11-25T04:12:00;9.40;82.60
40085;DHT22;25786;51.504;7.344;2022-11-25T04:14:44;9.50;82.50
40085;DHT22;25786;51.504;7.344;2022-11-25T04:17:09;9.40;82.60
40085;DHT22;25786;51.504;7.344;2022-11-25T04:19:35;9.50;82.50
40085;DHT22;25786;51.504;7.344;2022-11-25T04:22:00;9.40;82.50
40085;DHT22;25786;51.504;7.344;2022-11-25T04:24:27;9.40;82.60
40085;DHT22;25786;51.504;7.344;2022-11-25T04:26:53;9.50;82.20
40085;DHT22;25786;51.504;7.344;2022-11-25T04:29:19;9.50;82.50
40085;DHT22;25786;51.504;7.344;2022-11-25T04:31:44;9.60;82.10
40085;DHT22;25786;51.504;7.344;2022-11-25T04:34:10;9.60;82.10
40085;DHT22;25786;51.504;7.344;2022-11-25T04:36:35;9.70;81.90
40085;DHT22;25786;51.504;7.344;2022-11-25T04:39:01;9.80;81.90
40085;DHT22;25786;51.504;7.344;2022-11-25T04:41:27;9.80;82.00
40085;DHT22;25786;51.504;7.344;2022-11-25T04:43:52;9.80;82.20
40085;DHT22;25786;51.504;7.344;2022-11-25T04:46:18;9.70;82.80
40085;DHT22;25786;51.504;7.344;2022-11-25T04:48:45;9.60;83.20
40085;DHT22;25786;51.504;7.344;2022-11-25T04:51:11;9.60;83.80
40085;DHT22;25786;51.504;7.344;2022-11-25T04:53:36;9.60;84.30
40085;DHT22;25786;51.504;7.344;2022-11-25T04:56:01;9.60;85.00
40085;DHT22;25786;51.504;7.344;2022-11-25T04:58:27;9.50;85.40
40085;DHT22;25786;51.504;7.344;2022-11-25T05:01:11;9.40;86.10
40085;DHT22;25786;51.504;7.344;2022-11-25T05:03:37;9.30;86.90
40085;DHT22;25786;51.504;7.344;2022-11-25T05:06:09;9.30;87.00
40085;DHT22;25786;51.504;7.344;2022-11-25T05:08:34;9.30;87.00
40085;DHT22;25786;51.504;7.344;2022-11-25T05:11:00;9.20;87.30
40085;DHT22;25786;51.504;7.344;2022-11-25T05:13:26;9.30;87.60
40085;DHT22;25786;51.504;7.344;2022-11-25T05:15:51;9.30;87.30
40085;DHT22;25786;51.504;7.344;2022-11-25T05:18:17;9.30;87.10
40085;DHT22;25786;51.504;7.344;2022-11-25T05:20:42;9.30;87.50
40085;DHT22;25786;51.504;7.344;2022-11-25T05:23:08;9.20;87.50
40085;DHT22;25786;51.504;7.344;2022-11-25T05:25:34;9.30;87.20
40085;DHT22;25786;51.504;7.344;2022-11-25T05:27:59;9.20;87.00
40085;DHT22;25786;51.504;7.344;2022-11-25T05:30:25;9.10;87.20
40085;DHT22;25786;51.504;7.344;2022-11-25T05:32:50;9.20;87.20
40085;DHT22;25786;51.504;7.344;2022-11-25T05:35:15;9.10;86.90
40085;DHT22;25786;51.504;7.344;2022-11-25T05:37:41;9.10;87.10
40085;DHT22;25786;51.504;7.344;2022-11-25T05:40:08;9.10;86.70
40085;DHT22;25786;51.504;7.344;2022-11-25T05:42:33;9.10;87.00
40085;DHT22;25786;51.504;7.344;2022-11-25T05:44:59;9.20;86.90
40085;DHT22;25786;51.504;7.344;2022-11-25T05:47:26;9.20;87.20
40085;DHT22;25786;51.504;7.344;2022-11-25T05:49:52;9.10;87.30
40085;DHT22;25786;51.504;7.344;2022-11-25T05:52:19;9.10;87.40
40085;DHT22;25786;51.504;7.344;2022-11-25T05:54:45;9.10;87.30
40085;DHT22;25786;51.504;7.344;2022-11-25T05:57:10;9.20;87.20
40085;DHT22;25786;51.504;7.344;2022-11-25T05:59:36;9.10;87.40
40085;DHT22;25786;51.504;7.344;2022-11-25T06:02:01;9.10;87.60
40085;DHT22;25786;51.504;7.344;2022-11-25T06:04:27;9.10;87.90
40085;DHT22;25786;51.504;7.344;2022-11-25T06:06:52;9.10;87.80
40085;DHT22;25786;51.504;7.344;2022-11-25T06:09:18;9.10;87.80
40085;DHT22;25786;51.504;7.344;2022-11-25T06:11:43;9.10;87.30
40085;DHT22;25786;51.504;7.344;2022-11-25T06:14:09;9.10;87.50
40085;DHT22;25786;51.504;7.344;2022-11-25T06:16:34;9.00;87.60
40085;DHT22;25786;51.504;7.344;2022-11-25T06:19:00;9.00;88.00
40085;DHT22;25786;51.504;7.344;2022-11-25T06:21:26;9.00;87.80
40085;DHT22;25786;51.504;7.344;2022-11-25T06:23:52;9.00;88.00
40085;DHT22;25786;51.504;7.344;2022-11-25T06:26:18;9.00;88.10
40085;DHT22;25786;51.504;7.344;2022-11-25T06:28:44;9.00;87.90
40085;DHT22;25786;51.504;7.344;2022-11-25T06:31:12;9.00;88.20
40085;DHT22;25786;51.504;7.344;2022-11-25T06:33:37;9.00;88.50
40085;DHT22;25786;51.504;7.344;2022-11-25T06:36:04;9.00;88.60
40085;DHT22;25786;51.504;7.344;2022-11-25T06:38:29;9.00;88.80
40085;DHT22;25786;51.504;7.344;2022-11-25T06:40:59;9.00;88.80
40085;DHT22;25786;51.504;7.344;2022-11-25T06:43:24;9.00;88.60
40085;DHT22;25786;51.504;7.344;2022-11-25T06:45:50;8.90;88.70
40085;DHT22;25786;51.504;7.344;2022-11-25T06:48:15;8.90;88.80
40085;DHT22;25786;51.504;7.344;2022-11-25T06:50:41;8.90;89.00
40085;DHT22;25786;51.504;7.344;2022-11-25T06:53:06;8.90;88.90
40085;DHT22;25786;51.504;7.344;2022-11-25T06:55:32;8.90;89.40
40085;DHT22;25786;51.504;7.344;2022-11-25T06:57:57;8.90;89.00
40085;DHT22;25786;51.504;7.344;2022-11-25T07:00:22;9.00;89.60
40085;DHT22;25786;51.504;7.344;2022-11-25T07:02:48;9.00;89.70
40085;DHT22;25786;51.504;7.344;2022-11-25T07:05:13;9.00;89.60
40085;DHT22;25786;51.504;7.344;2022-11-25T07:07:39;9.00;89.50
40085;DHT22;25786;51.504;7.344;2022-11-25T07:10:04;9.00;89.30
40085;DHT22;25786;51.504;7.344;2022-11-25T07:12:30;8.90;89.40
40085;DHT22;25786;51.504;7.344;2022-11-25T07:14:56;8.90;89.40
40085;DHT22;25786;51.504;7.344;2022-11-25T07:17:24;9.00;89.20
40085;DHT22;25786;51.504;7.344;2022-11-25T07:19:49;8.90;89.00
40085;DHT22;25786;51.504;7.344;2022-11-25T07:22:15;9.00;89.00
40085;DHT22;25786;51.504;7.344;2022-11-25T07:24:40;9.00;88.90
40085;DHT22;25786;51.504;7.344;2022-11-25T07:27:06;9.00;88.90
40085;DHT22;25786;51.504;7.344;2022-11-25T07:29:32;9.00;88.80
40085;DHT22;25786;51.504;7.344;2022-11-25T07:31:59;9.00;88.90
40085;DHT22;25786;51.504;7.344;2022-11-25T07:34:25;8.90;88.90
40085;DHT22;25786;51.504;7.344;2022-11-25T07:36:50;8.80;89.00
40085;DHT22;25786;51.504;7.344;2022-11-25T07:39:17;8.80;89.30
40085;DHT22;25786;51.504;7.344;2022-11-25T07:41:42;8.80;89.10
40085;DHT22;25786;51.504;7.344;2022-11-25T07:44:10;8.80;89.10
40085;DHT22;25786;51.504;7.344;2022-11-25T07:46:36;8.80;89.20
40085;DHT22;25786;51.504;7.344;2022-11-25T07:49:03;8.80;89.10
40085;DHT22;25786;51.504;7.344;2022-11-25T07:51:30;8.80;89.10
40085;DHT22;25786;51.504;7.344;2022-11-25T07:53:56;8.80;89.20
40085;DHT22;25786;51.504;7.344;2022-11-25T07:56:22;8.90;89.30
40085;DHT22;25786;51.504;7.344;2022-11-25T07:58:48;9.00;89.20
40085;DHT22;25786;51.504;7.344;2022-11-25T08:01:14;9.00;89.10
40085;DHT22;25786;51.504;7.344;2022-11-25T08:03:40;8.90;89.00
40085;DHT22;25786;51.504;7.344;2022-11-25T08:06:07;8.90;89.20
40085;DHT22;25786;51.504;7.344;2022-11-25T08:08:33;8.90;89.00
40085;DHT22;25786;51.504;7.344;2022-11-25T08:10:58;9.00;89.30
40085;DHT22;25786;51.504;7.344;2022-11-25T08:13:24;8.90;89.00
40085;DHT22;25786;51.504;7.344;2022-11-25T08:15:50;8.90;89.30
40085;DHT22;25786;51.504;7.344;2022-11-25T08:18:16;9.00;89.20
40085;DHT22;25786;51.504;7.344;2022-11-25T08:20:41;9.00;89.20
40085;DHT22;25786;51.504;7.344;2022-11-25T08:23:07;8.90;89.20
40085;DHT22;25786;51.504;7.344;2022-11-25T08:25:32;9.00;89.50
40085;DHT22;25786;51.504;7.344;2022-11-25T08:27:58;9.10;89.50
40085;DHT22;25786;51.504;7.344;2022-11-25T08:30:24;9.10;89.00
40085;DHT22;25786;51.504;7.344;2022-11-25T08:32:50;9.10;89.30
40085;DHT22;25786;51.504;7.344;2022-11-25T08:35:16;9.10;89.20
40085;DHT22;25786;51.504;7.344;2022-11-25T08:37:41;9.10;89.20
40085;DHT22;25786;51.504;7.344;2022-11-25T08:40:07;9.00;89.20
40085;DHT22;25786;51.504;7.344;2022-11-25T08:42:32;9.10;89.10
40085;DHT22;25786;51.504;7.344;2022-11-25T08:44:58;9.20;89.10
40085;DHT22;25786;51.504;7.344;2022-11-25T08:47:24;9.20;88.90
40085;DHT22;25786;51.504;7.344;2022-11-25T08:49:50;9.20;89.00
40085;DHT22;25786;51.504;7.344;2022-11-25T08:52:16;9.30;89.10
40085;DHT22;25786;51.504;7.344;2022-11-25T08:54:41;9.30;89.10
40085;DHT22;25786;51.504;7.344;2022-11-25T08:57:07;9.40;89.10
40085;DHT22;25786;51.504;7.344;2022-11-25T08:59:32;9.30;89.00
40085;DHT22;25786;51.504;7.344;2022-11-25T09:01:59;9.40;88.70
40085;DHT22;25786;51.504;7.344;2022-11-25T09:04:25;9.30;88.70
40085;DHT22;25786;51.504;7.344;2022-11-25T09:06:50;9.20;88.90
40085;DHT22;25786;51.504;7.344;2022-11-25T09:09:16;9.10;89.00
40085;DHT22;25786;51.504;7.344;2022-11-25T09:11:41;9.10;89.20
40085;DHT22;25786;51.504;7.344;2022-11-25T09:14:07;9.10;89.40
40085;DHT22;25786;51.504;7.344;2022-11-25T09:16:32;9.10;89.20
40085;DHT22;25786;51.504;7.344;2022-11-25T09:18:58;9.20;89.30
40085;DHT22;25786;51.504;7.344;2022-11-25T09:21:24;9.30;89.30
40085;DHT22;25786;51.504;7.344;2022-11-25T09:23:49;9.30;89.30
40085;DHT22;25786;51.504;7.344;2022-11-25T09:26:17;9.40;89.40
40085;DHT22;25786;51.504;7.344;2022-11-25T09:28:44;9.50;89.20
40085;DHT22;25786;51.504;7.344;2022-11-25T09:31:09;9.50;88.90
40085;DHT22;25786;51.504;7.344;2022-11-25T09:33:35;9.50;88.60
40085;DHT22;25786;51.504;7.344;2022-11-25T09:36:01;9.60;88.80
40085;DHT22;25786;51.504;7.344;2022-11-25T09:38:27;9.50;88.60
40085;DHT22;25786;51.504;7.344;2022-11-25T09:46:11;9.60;88.40
40085;DHT22;25786;51.504;7.344;2022-11-25T09:48:58;9.60;88.20
40085;DHT22;25786;51.504;7.344;2022-11-25T09:53:53;9.70;88.00
40085;DHT22;25786;51.504;7.344;2022-11-25T09:56:24;9.70;87.60
40085;DHT22;25786;51.504;7.344;2022-11-25T10:01:52;9.80;87.60
40085;DHT22;25786;51.504;7.344;2022-11-25T10:04:29;9.90;87.10
40085;DHT22;25786;51.504;7.344;2022-11-25T10:06:57;10.00;87.10
40085;DHT22;25786;51.504;7.344;2022-11-25T10:09:27;10.00;87.00
40085;DHT22;25786;51.504;7.344;2022-11-25T10:11:57;10.00;86.60
40085;DHT22;25786;51.504;7.344;2022-11-25T10:14:32;10.10;86.10
40085;DHT22;25786;51.504;7.344;2022-11-25T10:17:08;10.30;85.80
40085;DHT22;25786;51.504;7.344;2022-11-25T10:22:35;10.40;84.60
40085;DHT22;25786;51.504;7.344;2022-11-25T10:25:12;10.50;84.80
40085;DHT22;25786;51.504;7.344;2022-11-25T10:27:42;10.40;84.10
40085;DHT22;25786;51.504;7.344;2022-11-25T10:30:19;10.40;84.10
40085;DHT22;25786;51.504;7.344;2022-11-25T10:35:27;10.40;84.10
40085;DHT22;25786;51.504;7.344;2022-11-25T10:37:54;10.30;84.30
40085;DHT22;25786;51.504;7.344;2022-11-25T10:40:20;10.30;84.30
40085;DHT22;25786;51.504;7.344;2022-11-25T10:42:46;10.30;84.40
40085;DHT22;25786;51.504;7.344;2022-11-25T10:45:11;10.30;84.40
40085;DHT22;25786;51.504;7.344;2022-11-25T10:47:52;10.20;84.20
40085;DHT22;25786;51.504;7.344;2022-11-25T10:50:37;10.30;84.10
40085;DHT22;25786;51.504;7.344;2022-11-25T10:55:33;10.40;83.30
40085;DHT22;25786;51.504;7.344;2022-11-25T10:58:00;10.50;83.40
40085;DHT22;25786;51.504;7.344;2022-11-25T11:00:43;10.50;82.80
40085;DHT22;25786;51.504;7.344;2022-11-25T11:03:13;10.50;82.80
40085;DHT22;25786;51.504;7.344;2022-11-25T11:05:43;10.40;83.30
40085;DHT22;25786;51.504;7.344;2022-11-25T11:08:15;10.40;83.20
40085;DHT22;25786;51.504;7.344;2022-11-25T11:11:06;10.30;83.20
40085;DHT22;25786;51.504;7.344;2022-11-25T11:19:23;10.30;83.90
40085;DHT22;25786;51.504;7.344;2022-11-25T11:22:13;10.50;83.80
40085;DHT22;25786;51.504;7.344;2022-11-25T11:24:35;10.50;83.00
40085;DHT22;25786;51.504;7.344;2022-11-25T11:27:03;10.50;83.20
40085;DHT22;25786;51.504;7.344;2022-11-25T11:29:32;10.50;83.30
40085;DHT22;25786;51.504;7.344;2022-11-25T11:31:59;10.50;83.70
40085;DHT22;25786;51.504;7.344;2022-11-25T11:34:42;10.50;83.20
40085;DHT22;25786;51.504;7.344;2022-11-25T11:42:17;10.70;82.50
40085;DHT22;25786;51.504;7.344;2022-11-25T11:47:31;10.70;82.00
40085;DHT22;25786;51.504;7.344;2022-11-25T11:50:16;10.80;82.50
40085;DHT22;25786;51.504;7.344;2022-11-25T11:53:04;10.80;82.20
40085;DHT22;25786;51.504;7.344;2022-11-25T12:03:37;11.00;81.80
40085;DHT22;25786;51.504;7.344;2022-11-25T12:06:05;10.90;82.10
40085;DHT22;25786;51.504;7.344;2022-11-25T12:08:32;10.80;82.40
40085;DHT22;25786;51.504;7.344;2022-11-25T12:11:02;10.80;82.40
40085;DHT22;25786;51.504;7.344;2022-11-25T12:13:36;10.70;82.60
40085;DHT22;25786;51.504;7.344;2022-11-25T12:19:12;10.80;82.00
40085;DHT22;25786;51.504;7.344;2022-11-25T12:26:50;10.90;81.80
40085;DHT22;25786;51.504;7.344;2022-11-25T12:31:52;10.90;81.30
40085;DHT22;25786;51.504;7.344;2022-11-25T12:34:26;10.90;81.10
40085;DHT22;25786;51.504;7.344;2022-11-25T12:36:58;10.80;81.50
40085;DHT22;25786;51.504;7.344;2022-11-25T12:41:53;10.90;81.30
40085;DHT22;25786;51.504;7.344;2022-11-25T12:44:36;10.90;81.50
40085;DHT22;25786;51.504;7.344;2022-11-25T12:47:08;10.80;81.70
40085;DHT22;25786;51.504;7.344;2022-11-25T12:49:39;10.80;82.20
40085;DHT22;25786;51.504;7.344;2022-11-25T12:57:20;10.80;82.20
40085;DHT22;25786;51.504;7.344;2022-11-25T13:00:11;10.80;82.20
40085;DHT22;25786;51.504;7.344;2022-11-25T13:08:13;10.90;82.20
40085;DHT22;25786;51.504;7.344;2022-11-25T13:18:03;11.00;81.40
40085;DHT22;25786;51.504;7.344;2022-11-25T13:20:33;11.00;81.40
40085;DHT22;25786;51.504;7.344;2022-11-25T13:25:32;11.10;81.20
40085;DHT22;25786;51.504;7.344;2022-11-25T13:27:58;11.00;81.10
40085;DHT22;25786;51.504;7.344;2022-11-25T13:41:20;11.10;81.10
40085;DHT22;25786;51.504;7.344;2022-11-25T13:43:58;11.20;80.60
40085;DHT22;25786;51.504;7.344;2022-11-25T13:46:28;11.30;80.70
40085;DHT22;25786;51.504;7.344;2022-11-25T13:48:58;11.20;80.80
40085;DHT22;25786;51.504;7.344;2022-11-25T13:51:24;11.30;80.20
40085;DHT22;25786;51.504;7.344;2022-11-25T13:53:58;11.40;79.50
40085;DHT22;25786;51.504;7.344;2022-11-25T14:01:39;11.50;80.10
40085;DHT22;25786;51.504;7.344;2022-11-25T14:04:08;11.50;80.00
40085;DHT22;25786;51.504;7.344;2022-11-25T14:14:28;11.40;80.20
40085;DHT22;25786;51.504;7.344;2022-11-25T14:22:42;11.50;79.70
40085;DHT22;25786;51.504;7.344;2022-11-25T14:27:37;11.40;80.00
40085;DHT22;25786;51.504;7.344;2022-11-25T14:30:07;11.40;80.50
40085;DHT22;25786;51.504;7.344;2022-11-25T14:38:03;11.60;79.50
40085;DHT22;25786;51.504;7.344;2022-11-25T14:43:14;11.60;79.60
40085;DHT22;25786;51.504;7.344;2022-11-25T14:45:41;11.50;79.60
40085;DHT22;25786;51.504;7.344;2022-11-25T14:48:13;11.40;80.10
40085;DHT22;25786;51.504;7.344;2022-11-25T14:50:40;11.30;80.40
40085;DHT22;25786;51.504;7.344;2022-11-25T14:53:16;11.20;80.50
40085;DHT22;25786;51.504;7.344;2022-11-25T14:55:42;11.20;80.20
40085;DHT22;25786;51.504;7.344;2022-11-25T14:58:11;11.10;80.60
40085;DHT22;25786;51.504;7.344;2022-11-25T15:00:48;11.20;80.50
40085;DHT22;25786;51.504;7.344;2022-11-25T15:03:14;11.10;80.50
40085;DHT22;25786;51.504;7.344;2022-11-25T15:05:41;11.10;80.80
40085;DHT22;25786;51.504;7.344;2022-11-25T15:08:12;11.10;81.00
40085;DHT22;25786;51.504;7.344;2022-11-25T15:13:19;11.20;80.50
40085;DHT22;25786;51.504;7.344;2022-11-25T15:15:47;11.10;80.80
40085;DHT22;25786;51.504;7.344;2022-11-25T15:18:16;11.20;80.90
40085;DHT22;25786;51.504;7.344;2022-11-25T15:20:52;11.20;80.80
40085;DHT22;25786;51.504;7.344;2022-11-25T15:23:22;11.10;80.50
40085;DHT22;25786;51.504;7.344;2022-11-25T15:25:49;11.10;80.60
40085;DHT22;25786;51.504;7.344;2022-11-25T15:28:15;11.10;81.10
40085;DHT22;25786;51.504;7.344;2022-11-25T15:30:41;11.10;80.90
40085;DHT22;25786;51.504;7.344;2022-11-25T15:33:07;11.10;80.90
40085;DHT22;25786;51.504;7.344;2022-11-25T15:35:34;11.10;80.70
40085;DHT22;25786;51.504;7.344;2022-11-25T15:38:00;11.10;80.70
40085;DHT22;25786;51.504;7.344;2022-11-25T15:40:40;11.10;80.60
40085;DHT22;25786;51.504;7.344;2022-11-25T15:43:20;11.10;81.00
40085;DHT22;25786;51.504;7.344;2022-11-25T15:45:47;11.10;80.90
40085;DHT22;25786;51.504;7.344;2022-11-25T15:53:49;10.90;81.30
40085;DHT22;25786;51.504;7.344;2022-11-25T15:56:18;11.00;81.00
40085;DHT22;25786;51.504;7.344;2022-11-25T15:58:45;10.90;81.20
40085;DHT22;25786;51.504;7.344;2022-11-25T16:03:45;10.90;81.10
40085;DHT22;25786;51.504;7.344;2022-11-25T16:06:21;10.90;81.30
40085;DHT22;25786;51.504;7.344;2022-11-25T16:08:51;10.90;81.40
40085;DHT22;25786;51.504;7.344;2022-11-25T16:11:17;10.80;81.30
40085;DHT22;25786;51.504;7.344;2022-11-25T16:13:47;10.80;81.10
40085;DHT22;25786;51.504;7.344;2022-11-25T16:16:17;10.80;81.30
40085;DHT22;25786;51.504;7.344;2022-11-25T16:21:10;10.70;81.50
40085;DHT22;25786;51.504;7.344;2022-11-25T16:23:37;10.80;81.40
40085;DHT22;25786;51.504;7.344;2022-11-25T16:28:28;10.70;81.60
40085;DHT22;25786;51.504;7.344;2022-11-25T16:30:54;10.80;81.50
40085;DHT22;25786;51.504;7.344;2022-11-25T16:33:22;10.80;81.50
40085;DHT22;25786;51.504;7.344;2022-11-25T16:35:48;10.80;81.00
40085;DHT22;25786;51.504;7.344;2022-11-25T16:38:13;10.80;81.40
40085;DHT22;25786;51.504;7.344;2022-11-25T16:40:39;10.80;81.30
40085;DHT22;25786;51.504;7.344;2022-11-25T16:43:23;10.70;81.50
40085;DHT22;25786;51.504;7.344;2022-11-25T16:45:50;10.70;81.60
40085;DHT22;25786;51.504;7.344;2022-11-25T16:48:17;10.70;81.30
40085;DHT22;25786;51.504;7.344;2022-11-25T16:50:43;10.80;81.70
40085;DHT22;25786;51.504;7.344;2022-11-25T16:53:09;10.80;81.40
40085;DHT22;25786;51.504;7.344;2022-11-25T16:55:35;10.70;81.30
40085;DHT22;25786;51.504;7.344;2022-11-25T16:58:01;10.80;80.90
40085;DHT22;25786;51.504;7.344;2022-11-25T17:00:27;10.80;81.10
40085;DHT22;25786;51.504;7.344;2022-11-25T17:02:52;10.90;80.60
40085;DHT22;25786;51.504;7.344;2022-11-25T17:05:18;10.70;81.30
40085;DHT22;25786;51.504;7.344;2022-11-25T17:07:44;10.70;81.30
40085;DHT22;25786;51.504;7.344;2022-11-25T17:10:10;10.70;81.70
40085;DHT22;25786;51.504;7.344;2022-11-25T17:12:35;10.70;82.70
40085;DHT22;25786;51.504;7.344;2022-11-25T17:15:03;10.70;83.30
40085;DHT22;25786;51.504;7.344;2022-11-25T17:17:29;10.70;83.80
40085;DHT22;25786;51.504;7.344;2022-11-25T17:19:55;10.60;84.40
40085;DHT22;25786;51.504;7.344;2022-11-25T17:22:21;10.60;84.60
40085;DHT22;25786;51.504;7.344;2022-11-25T17:24:47;10.60;84.20
40085;DHT22;25786;51.504;7.344;2022-11-25T17:27:18;10.60;84.60
40085;DHT22;25786;51.504;7.344;2022-11-25T17:29:45;10.50;84.80
40085;DHT22;25786;51.504;7.344;2022-11-25T17:32:11;10.50;85.20
40085;DHT22;25786;51.504;7.344;2022-11-25T17:34:37;10.50;85.30
40085;DHT22;25786;51.504;7.344;2022-11-25T17:37:05;10.50;85.40
40085;DHT22;25786;51.504;7.344;2022-11-25T17:39:31;10.50;85.40
40085;DHT22;25786;51.504;7.344;2022-11-25T17:41:56;10.50;84.70
40085;DHT22;25786;51.504;7.344;2022-11-25T17:44:23;10.60;84.30
40085;DHT22;25786;51.504;7.344;2022-11-25T17:46:49;10.50;84.40
40085;DHT22;25786;51.504;7.344;2022-11-25T17:49:15;10.40;84.50
40085;DHT22;25786;51.504;7.344;2022-11-25T17:51:44;10.40;84.90
40085;DHT22;25786;51.504;7.344;2022-11-25T17:54:10;10.40;85.10
40085;DHT22;25786;51.504;7.344;2022-11-25T17:56:35;10.50;84.70
40085;DHT22;25786;51.504;7.344;2022-11-25T17:59:02;10.30;84.60